Time;durP1;ratioP1;P1;durP2;ratioP2;P2;SDS_P1;SDS_P2;PMS_P1;PMS_P2;Temp;Humidity;BMP_temperature;BMP_pressure;BME280_temperature;BME280_humidity;BME280_pressure;Samples;Min_cycle;Max_cycle;Signal;HPM_P1;HPM_P2
2022/09/01 00:01:41;;;;;;;1.80;0.98;;;19.10;99.90;;;;;;5012423;28;20038;-75
2022/09/01 00:04:10;;;;;;;4.50;1.35;;;19.10;99.90;;;;;;4994918;28;20030;-75
2022/09/01 00:06:37;;;;;;;1.65;1.00;;;19.10;99.90;;;;;;4994743;28;20045;-76
2022/09/01 00:09:08;;;;;;;1.33;1.02;;;19.10;99.90;;;;;;5012043;28;20489;-76
2022/09/01 00:11:34;;;;;;;4.60;1.10;;;18.90;99.90;;;;;;5011189;28;20064;-75
2022/09/01 00:14:01;;;;;;;1.17;0.77;;;18.90;99.90;;;;;;4994156;28;20116;-75
2022/09/01 00:16:29;;;;;;;1.45;1.00;;;18.80;99.90;;;;;;5011980;28;20439;-75
2022/09/01 00:18:55;;;;;;;2.97;0.80;;;18.60;99.90;;;;;;4994337;28;20026;-75
2022/09/01 00:21:33;;;;;;;3.28;1.73;;;18.60;99.90;;;;;;5011765;28;20025;-75
2022/09/01 00:24:00;;;;;;;2.83;1.15;;;18.40;99.90;;;;;;4995188;28;20030;-75
2022/09/01 00:26:26;;;;;;;8.63;0.85;;;18.40;99.90;;;;;;4994298;28;20038;-75
2022/09/01 00:28:52;;;;;;;1.83;0.95;;;18.50;99.90;;;;;;4994299;28;20053;-76
2022/09/01 00:31:19;;;;;;;1.27;0.80;;;18.40;99.90;;;;;;4994359;28;20022;-75
2022/09/01 00:33:47;;;;;;;1.63;0.80;;;18.40;99.90;;;;;;4994011;28;20161;-76
2022/09/01 00:36:13;;;;;;;1.80;1.35;;;18.30;99.90;;;;;;4994221;28;20026;-75
2022/09/01 00:38:39;;;;;;;0.95;0.70;;;18.40;99.90;;;;;;4977685;28;20073;-76
2022/09/01 00:41:06;;;;;;;1.52;1.10;;;18.40;99.90;;;;;;5011433;28;20501;-75
2022/09/01 00:43:58;;;;;;;1.00;0.50;;;18.30;99.90;;;;;;4993719;28;20113;-76
2022/09/01 00:46:35;;;;;;;1.83;0.90;;;18.20;99.90;;;;;;4994496;28;20494;-75
2022/09/01 00:49:13;;;;;;;2.35;1.02;;;18.20;99.90;;;;;;4994174;28;20172;-75
2022/09/01 00:51:46;;;;;;;1.20;0.82;;;18.10;99.90;;;;;;4994862;28;20176;-75
2022/09/01 00:54:19;;;;;;;1.95;1.27;;;18.00;99.90;;;;;;4994293;28;20025;-76
2022/09/01 00:56:46;;;;;;;1.63;1.20;;;18.00;99.90;;;;;;4993949;28;20052;-75
2022/09/01 00:59:15;;;;;;;2.65;1.27;;;17.80;99.90;;;;;;5011336;28;20026;-75
2022/09/01 01:01:41;;;;;;;1.52;0.73;;;17.60;99.90;;;;;;4993720;28;20465;-75
2022/09/01 01:04:13;;;;;;;1.15;0.82;;;17.50;99.90;;;;;;4989751;28;20033;-76
2022/09/01 01:07:01;;;;;;;1.23;0.80;;;17.50;99.90;;;;;;4981507;28;20041;-75
2022/09/01 01:09:33;;;;;;;1.63;1.10;;;17.50;99.90;;;;;;4974352;28;20019;-75
2022/09/01 01:12:01;;;;;;;1.17;0.82;;;17.50;99.90;;;;;;4974265;28;20088;-75
2022/09/01 01:14:31;;;;;;;1.40;0.98;;;17.50;99.90;;;;;;4974323;28;20026;-76
2022/09/01 01:16:59;;;;;;;1.10;0.60;;;17.60;99.90;;;;;;4971128;28;20053;-75
2022/09/01 01:23:04;;;;;;;2.15;1.40;;;17.90;99.90;;;;;;4970611;28;20039;-75
2022/09/01 01:25:43;;;;;;;5.60;1.70;;;18.10;99.90;;;;;;4990711;28;20045;-75
2022/09/01 01:28:20;;;;;;;1.83;1.20;;;18.20;99.90;;;;;;4974186;28;20113;-75
2022/09/01 01:31:04;;;;;;;1.92;0.85;;;18.20;99.90;;;;;;4991327;28;20023;-75
2022/09/01 01:33:40;;;;;;;5.68;1.15;;;18.40;99.90;;;;;;4993094;28;20061;-75
2022/09/01 01:36:11;;;;;;;2.47;1.45;;;18.40;99.90;;;;;;4993696;28;20038;-75
2022/09/01 01:38:45;;;;;;;1.85;1.27;;;18.40;99.90;;;;;;4978180;28;20511;-75
2022/09/01 01:41:13;;;;;;;1.75;0.93;;;18.10;99.90;;;;;;4987457;28;20035;-75
2022/09/01 01:43:40;;;;;;;2.75;0.93;;;18.00;99.90;;;;;;4975477;28;20026;-75
2022/09/01 01:46:10;;;;;;;1.58;0.73;;;17.90;99.90;;;;;;4975659;28;20085;-75
2022/09/01 01:48:40;;;;;;;0.73;0.60;;;17.60;99.90;;;;;;4974108;28;20427;-75
2022/09/01 01:51:09;;;;;;;1.80;1.03;;;17.60;99.90;;;;;;4974344;28;20031;-75
2022/09/01 01:53:35;;;;;;;1.70;1.30;;;17.50;99.90;;;;;;4975190;28;20369;-75
2022/09/01 01:56:02;;;;;;;1.33;0.90;;;17.50;99.90;;;;;;4974424;28;20048;-75
2022/09/01 01:58:29;;;;;;;1.60;1.00;;;17.50;99.90;;;;;;4974380;28;20085;-75
2022/09/01 02:00:55;;;;;;;2.03;1.00;;;17.40;99.90;;;;;;4974210;28;20030;-75
2022/09/01 02:03:33;;;;;;;1.27;1.13;;;17.40;99.90;;;;;;4973693;28;20038;-75
2022/09/01 02:06:06;;;;;;;1.80;0.65;;;17.30;99.90;;;;;;4974137;28;20483;-75
2022/09/01 02:08:34;;;;;;;4.40;1.65;;;17.20;99.90;;;;;;4974984;28;20545;-75
2022/09/01 02:11:04;;;;;;;1.85;1.60;;;17.20;99.90;;;;;;4973749;28;20479;-75
2022/09/01 02:13:29;;;;;;;1.13;0.90;;;17.20;99.90;;;;;;4974913;28;20037;-76
2022/09/01 02:16:03;;;;;;;1.60;1.08;;;17.40;99.90;;;;;;4976977;28;20026;-75
2022/09/01 02:18:38;;;;;;;2.10;1.38;;;17.40;99.90;;;;;;4977041;28;20030;-75
2022/09/01 02:21:08;;;;;;;3.83;1.75;;;17.40;99.90;;;;;;4977065;28;20629;-75
2022/09/01 02:23:39;;;;;;;7.63;1.08;;;17.30;99.90;;;;;;4994337;28;20084;-75
2022/09/01 02:26:10;;;;;;;0.95;0.73;;;17.40;99.90;;;;;;4977655;28;20053;-75
2022/09/01 02:28:41;;;;;;;2.70;1.15;;;17.50;99.90;;;;;;4994094;28;20039;-75
2022/09/01 02:31:10;;;;;;;1.77;1.30;;;17.70;99.90;;;;;;4977394;28;20467;-75
2022/09/01 02:33:38;;;;;;;5.05;1.10;;;17.80;99.90;;;;;;4976726;28;20038;-75
2022/09/01 02:36:11;;;;;;;2.58;1.42;;;18.00;99.90;;;;;;5025738;23;20041;-64
2022/09/01 02:38:41;;;;;;;7.43;1.23;;;18.00;99.90;;;;;;5020051;28;20629;-63
2022/09/01 02:41:07;;;;;;;1.50;0.90;;;17.80;99.90;;;;;;5033631;28;20043;-63
2022/09/01 02:43:33;;;;;;;2.63;1.42;;;17.70;99.90;;;;;;5015511;28;20037;-63
2022/09/01 02:46:01;;;;;;;2.35;1.20;;;17.50;99.90;;;;;;5015738;28;20079;-63
2022/09/01 02:48:36;;;;;;;2.05;1.13;;;17.40;99.90;;;;;;5033325;28;20064;-64
2022/09/01 02:51:26;;;;;;;2.08;1.48;;;17.40;99.90;;;;;;5033368;28;20069;-63
2022/09/01 02:53:52;;;;;;;1.48;0.98;;;17.20;99.90;;;;;;5033177;28;20095;-63
2022/09/01 02:56:21;;;;;;;1.00;0.88;;;17.00;99.90;;;;;;5015675;28;20076;-64
2022/09/01 02:58:48;;;;;;;1.70;1.27;;;16.90;99.90;;;;;;5033144;28;20607;-64
2022/09/01 03:01:23;;;;;;;4.32;0.95;;;16.90;99.90;;;;;;5033126;28;20037;-63
2022/09/01 03:03:51;;;;;;;2.55;1.35;;;16.80;99.90;;;;;;5043925;28;20033;-63
2022/09/01 03:06:19;;;;;;;5.05;1.65;;;16.80;99.90;;;;;;5045854;28;20112;-63
2022/09/01 03:08:47;;;;;;;1.35;0.93;;;16.80;99.90;;;;;;5034904;28;20040;-64
2022/09/01 03:11:12;;;;;;;1.80;1.13;;;16.70;99.90;;;;;;5027088;28;20030;-63
2022/09/01 03:13:40;;;;;;;1.48;1.27;;;16.70;99.90;;;;;;5032637;28;20041;-64
2022/09/01 03:16:08;;;;;;;1.88;1.30;;;16.70;99.90;;;;;;5029430;28;20017;-64
2022/09/01 03:18:34;;;;;;;2.00;1.30;;;16.80;99.90;;;;;;5034747;28;20033;-63
2022/09/01 03:21:01;;;;;;;1.27;1.00;;;16.90;99.90;;;;;;5016692;28;20167;-63
2022/09/01 03:23:30;;;;;;;1.45;1.17;;;16.90;99.90;;;;;;5032252;28;20025;-63
2022/09/01 03:25:56;;;;;;;1.67;1.38;;;16.90;99.90;;;;;;5032546;28;20561;-63
2022/09/01 03:28:23;;;;;;;2.10;1.27;;;16.90;99.90;;;;;;5032285;28;20037;-63
2022/09/01 03:30:53;;;;;;;2.42;1.38;;;16.80;99.90;;;;;;5014930;28;20025;-64
2022/09/01 03:33:22;;;;;;;2.53;1.55;;;16.60;99.90;;;;;;5031974;28;20434;-63
2022/09/01 03:35:48;;;;;;;1.42;1.10;;;16.50;99.90;;;;;;5031792;28;20515;-62
2022/09/01 03:38:21;;;;;;;3.67;1.25;;;16.50;99.90;;;;;;5033056;28;20084;-62
2022/09/01 03:41:01;;;;;;;1.83;1.50;;;16.40;99.90;;;;;;5051037;28;20496;-62
2022/09/01 03:43:30;;;;;;;2.60;1.58;;;16.30;99.90;;;;;;5034026;28;20124;-62
2022/09/01 03:46:00;;;;;;;1.38;0.82;;;16.30;99.90;;;;;;4980095;28;20029;-62
2022/09/01 03:48:28;;;;;;;1.40;1.13;;;16.30;99.90;;;;;;5050968;28;20033;-63
2022/09/01 03:51:01;;;;;;;2.28;1.40;;;16.40;99.90;;;;;;5027753;28;20504;-62
2022/09/01 03:53:30;;;;;;;2.75;1.42;;;16.50;99.90;;;;;;5049505;28;20021;-63
2022/09/01 03:55:56;;;;;;;2.10;1.58;;;16.50;99.90;;;;;;5020116;28;20030;-62
2022/09/01 03:58:23;;;;;;;1.73;1.27;;;16.40;99.90;;;;;;5030864;28;20044;-63
2022/09/01 04:00:54;;;;;;;3.05;1.40;;;16.30;99.90;;;;;;5033114;28;20101;-63
2022/09/01 04:03:26;;;;;;;2.03;1.40;;;16.30;99.90;;;;;;5030678;28;20537;-63
2022/09/01 04:05:53;;;;;;;1.98;1.25;;;16.20;99.90;;;;;;5029455;28;20048;-62
2022/09/01 04:08:26;;;;;;;1.73;1.20;;;16.10;99.90;;;;;;5028948;28;20037;-62
2022/09/01 04:10:54;;;;;;;1.58;1.15;;;16.10;99.90;;;;;;5036020;28;20017;-62
2022/09/01 04:13:37;;;;;;;3.58;1.70;;;16.10;99.90;;;;;;5048849;28;20032;-62
2022/09/01 04:16:09;;;;;;;1.20;1.02;;;16.00;99.90;;;;;;5035007;28;20193;-62
2022/09/01 04:18:35;;;;;;;1.90;1.00;;;16.00;99.90;;;;;;5013341;28;20037;-62
2022/09/01 04:21:01;;;;;;;2.85;1.20;;;16.00;99.90;;;;;;5002605;28;20032;-62
2022/09/01 04:23:33;;;;;;;1.58;1.20;;;16.10;99.90;;;;;;5049943;28;20039;-62
2022/09/01 04:26:07;;;;;;;0.85;0.68;;;16.10;99.90;;;;;;5032403;28;20520;-62
2022/09/01 04:28:44;;;;;;;1.35;1.08;;;16.00;99.90;;;;;;5049890;28;20040;-62
2022/09/01 04:31:13;;;;;;;1.60;1.08;;;16.10;99.90;;;;;;5050087;28;20052;-63
2022/09/01 04:33:39;;;;;;;2.83;1.50;;;16.10;99.90;;;;;;5049694;28;20489;-63
2022/09/01 04:36:18;;;;;;;6.10;1.35;;;16.00;99.90;;;;;;5012886;28;1066908;-63
2022/09/01 04:38:46;;;;;;;2.88;1.45;;;16.00;99.90;;;;;;5050693;28;20066;-64
2022/09/01 04:41:16;;;;;;;2.83;1.65;;;16.00;99.90;;;;;;5050669;28;20032;-64
2022/09/01 04:43:46;;;;;;;2.10;1.37;;;16.00;99.90;;;;;;5050395;28;20032;-64
2022/09/01 04:46:14;;;;;;;2.65;2.10;;;15.90;99.90;;;;;;5032837;28;20106;-63
2022/09/01 04:48:44;;;;;;;1.45;0.90;;;16.00;99.90;;;;;;5050729;28;20049;-64
2022/09/01 04:51:11;;;;;;;2.90;1.13;;;16.10;99.90;;;;;;5032855;28;20032;-65
2022/09/01 04:53:47;;;;;;;7.13;1.05;;;16.20;99.90;;;;;;5032955;28;20032;-64
2022/09/01 04:56:21;;;;;;;3.42;1.67;;;16.30;99.90;;;;;;5029221;28;20055;-65
2022/09/01 04:58:54;;;;;;;2.92;1.40;;;16.30;99.90;;;;;;5030327;28;20029;-65
2022/09/01 05:01:26;;;;;;;3.03;1.58;;;16.20;99.90;;;;;;5028947;28;20116;-65
2022/09/01 05:04:00;;;;;;;2.33;1.25;;;16.30;99.90;;;;;;5028924;28;20040;-66
2022/09/01 05:06:28;;;;;;;1.60;1.05;;;16.30;99.90;;;;;;5030105;28;20022;-64
2022/09/01 05:08:58;;;;;;;2.42;1.17;;;16.20;99.90;;;;;;5027996;28;20033;-65
2022/09/01 05:11:24;;;;;;;2.00;1.42;;;16.10;99.90;;;;;;5040440;28;20086;-65
2022/09/01 05:13:56;;;;;;;1.60;0.98;;;16.00;99.90;;;;;;5048874;28;20085;-65
2022/09/01 05:16:24;;;;;;;4.38;1.13;;;15.90;99.90;;;;;;5048974;28;20108;-65
2022/09/01 05:18:55;;;;;;;1.98;1.15;;;15.90;99.90;;;;;;5050040;28;20120;-65
2022/09/01 05:21:27;;;;;;;2.58;1.27;;;15.90;99.90;;;;;;5048778;28;20037;-65
2022/09/01 05:23:53;;;;;;;4.00;1.52;;;15.90;99.90;;;;;;5032786;28;20040;-65
2022/09/01 05:26:25;;;;;;;9.55;1.80;;;15.90;99.90;;;;;;5031920;28;20024;-65
2022/09/01 05:28:55;;;;;;;1.05;0.90;;;15.80;99.90;;;;;;5032208;28;20112;-65
2022/09/01 05:31:23;;;;;;;7.60;2.05;;;15.80;99.90;;;;;;5049681;28;20473;-66
2022/09/01 05:33:50;;;;;;;4.13;1.50;;;15.70;99.90;;;;;;5049383;28;20068;-66
2022/09/01 05:36:21;;;;;;;2.65;1.20;;;15.60;99.90;;;;;;5031633;28;20025;-66
2022/09/01 05:38:49;;;;;;;8.55;1.25;;;15.60;99.90;;;;;;5048531;28;20421;-66
2022/09/01 05:41:19;;;;;;;1.90;1.58;;;15.60;99.90;;;;;;5032335;28;20037;-63
2022/09/01 05:43:48;;;;;;;2.80;1.50;;;15.70;99.90;;;;;;5014716;28;20032;-64
2022/09/01 05:46:22;;;;;;;2.30;1.33;;;15.70;99.90;;;;;;5013523;28;20537;-64
2022/09/01 05:48:50;;;;;;;1.38;1.00;;;15.70;99.90;;;;;;5031219;28;20619;-64
2022/09/01 05:51:22;;;;;;;2.70;1.50;;;15.80;99.90;;;;;;5030459;28;20025;-64
2022/09/01 05:53:58;;;;;;;3.65;1.73;;;15.90;99.90;;;;;;5049326;28;20429;-65
2022/09/01 05:56:28;;;;;;;8.45;1.48;;;16.00;99.90;;;;;;5048704;28;20120;-64
2022/09/01 05:58:56;;;;;;;1.75;1.27;;;16.00;99.90;;;;;;5032002;28;20123;-65
2022/09/01 06:01:29;;;;;;;1.27;0.82;;;16.20;99.90;;;;;;5047936;28;20033;-64
2022/09/01 06:03:56;;;;;;;2.20;1.60;;;16.20;99.90;;;;;;5048594;28;20098;-64
2022/09/01 06:06:26;;;;;;;5.70;1.48;;;16.10;99.90;;;;;;5049397;28;20064;-64
2022/09/01 06:08:56;;;;;;;1.58;1.08;;;16.20;99.90;;;;;;5049447;28;20029;-65
2022/09/01 06:11:23;;;;;;;1.80;1.17;;;16.10;99.90;;;;;;5038163;28;20030;-65
2022/09/01 06:13:51;;;;;;;1.15;0.90;;;16.20;99.90;;;;;;5029490;28;20064;-65
2022/09/01 06:16:18;;;;;;;2.00;1.00;;;16.20;99.90;;;;;;5029475;28;20362;-65
2022/09/01 06:18:44;;;;;;;2.08;1.27;;;16.10;99.90;;;;;;5012697;28;20646;-65
2022/09/01 06:21:15;;;;;;;1.05;0.95;;;16.30;99.90;;;;;;5037905;28;20029;-65
2022/09/01 06:23:43;;;;;;;4.75;1.48;;;16.40;99.90;;;;;;5035970;28;20037;-65
2022/09/01 06:26:45;;;;;;;3.90;1.38;;;16.40;99.90;;;;;;5052901;28;20776;-64
2022/09/01 06:29:14;;;;;;;2.10;1.17;;;16.50;99.90;;;;;;5020519;28;20106;-64
2022/09/01 06:31:41;;;;;;;2.50;1.15;;;16.30;99.90;;;;;;5053063;28;20025;-65
2022/09/01 06:34:10;;;;;;;4.13;1.77;;;16.40;99.90;;;;;;5052596;28;20671;-64
2022/09/01 06:36:39;;;;;;;1.98;1.20;;;16.60;99.90;;;;;;5052393;28;20100;-64
2022/09/01 06:39:05;;;;;;;2.67;1.63;;;16.70;99.90;;;;;;5035043;28;20435;-65
2022/09/01 06:41:31;;;;;;;1.38;0.75;;;16.90;99.90;;;;;;5052654;28;20021;-65
2022/09/01 06:44:00;;;;;;;1.08;0.82;;;16.70;99.90;;;;;;5052497;28;20350;-65
2022/09/01 06:46:28;;;;;;;3.17;0.75;;;17.00;99.90;;;;;;5052433;28;20071;-65
2022/09/01 06:48:57;;;;;;;1.60;0.93;;;17.20;99.90;;;;;;5052447;28;20037;-65
2022/09/01 06:51:28;;;;;;;1.98;1.27;;;17.40;99.90;;;;;;5052349;28;20087;-65
2022/09/01 06:53:58;;;;;;;1.93;1.30;;;17.50;99.90;;;;;;5052495;28;20369;-65
2022/09/01 06:56:28;;;;;;;1.80;1.35;;;17.50;99.90;;;;;;5052570;28;20068;-65
2022/09/01 06:58:54;;;;;;;1.90;0.90;;;17.70;99.90;;;;;;5034804;28;20029;-65
2022/09/01 07:01:22;;;;;;;2.42;1.30;;;17.90;99.90;;;;;;5052296;28;20430;-65
2022/09/01 07:03:52;;;;;;;2.63;0.82;;;18.00;99.90;;;;;;5034510;28;20037;-65
2022/09/01 07:06:26;;;;;;;4.70;2.33;;;18.00;99.90;;;;;;5034503;28;20071;-65
2022/09/01 07:08:57;;;;;;;5.63;1.70;;;18.10;99.90;;;;;;5051957;28;20025;-65
2022/09/01 07:11:32;;;;;;;2.50;1.45;;;18.20;99.90;;;;;;5052019;28;20033;-65
2022/09/01 07:14:02;;;;;;;3.03;1.38;;;18.30;99.90;;;;;;5034278;28;20437;-65
2022/09/01 07:16:33;;;;;;;1.90;1.13;;;18.40;99.90;;;;;;5052104;28;20523;-65
2022/09/01 07:19:01;;;;;;;2.90;1.52;;;18.50;99.90;;;;;;5050625;28;20029;-65
2022/09/01 07:21:30;;;;;;;2.88;0.98;;;18.60;99.90;;;;;;5034164;28;20117;-65
2022/09/01 07:24:00;;;;;;;2.33;1.45;;;18.80;99.90;;;;;;5051803;28;20162;-65
2022/09/01 07:26:27;;;;;;;2.55;1.60;;;18.90;99.90;;;;;;5051770;28;20485;-65
2022/09/01 07:28:54;;;;;;;1.83;1.23;;;18.90;99.90;;;;;;5051773;28;20033;-65
2022/09/01 07:31:33;;;;;;;1.85;1.02;;;19.10;99.90;;;;;;5033075;28;20025;-65
2022/09/01 07:34:11;;;;;;;1.50;1.02;;;19.30;99.90;;;;;;5034715;28;20036;-65
2022/09/01 07:36:38;;;;;;;2.10;1.10;;;19.50;99.90;;;;;;5035495;28;20028;-65
2022/09/01 07:39:06;;;;;;;5.07;1.45;;;19.60;99.90;;;;;;5051605;28;20162;-65
2022/09/01 07:41:33;;;;;;;2.55;0.93;;;19.60;99.90;;;;;;5036859;28;20030;-66
2022/09/01 07:44:01;;;;;;;8.95;1.13;;;19.80;99.90;;;;;;5031698;28;20029;-65
2022/09/01 07:46:30;;;;;;;2.22;1.40;;;19.90;99.90;;;;;;5030291;28;20032;-66
2022/09/01 07:48:56;;;;;;;7.40;1.23;;;20.00;99.90;;;;;;5031570;28;20048;-65
2022/09/01 07:51:25;;;;;;;2.35;1.10;;;19.90;99.90;;;;;;5036668;28;20025;-65
2022/09/01 07:53:52;;;;;;;5.72;0.93;;;19.90;99.90;;;;;;5033409;28;20029;-66
2022/09/01 07:56:21;;;;;;;2.03;1.17;;;19.80;99.90;;;;;;5033172;28;20102;-66
2022/09/01 07:58:50;;;;;;;2.40;1.20;;;19.90;99.90;;;;;;5051277;28;20053;-65
2022/09/01 08:01:23;;;;;;;2.85;1.13;;;19.80;99.90;;;;;;5033873;28;20122;-66
2022/09/01 08:04:00;;;;;;;2.47;1.33;;;19.90;99.90;;;;;;5033494;28;20033;-66
2022/09/01 08:06:27;;;;;;;1.95;1.25;;;20.10;99.90;;;;;;5047982;28;20044;-66
2022/09/01 08:08:57;;;;;;;1.75;1.17;;;20.10;99.90;;;;;;5050907;28;20032;-65
2022/09/01 08:11:28;;;;;;;2.35;1.23;;;20.30;99.90;;;;;;5039470;28;20080;-66
2022/09/01 08:13:57;;;;;;;4.65;1.52;;;20.30;99.90;;;;;;5031044;28;20112;-65
2022/09/01 08:16:28;;;;;;;3.08;1.42;;;20.30;99.90;;;;;;5031068;28;20029;-65
2022/09/01 08:18:53;;;;;;;4.55;1.48;;;20.40;99.90;;;;;;5030906;28;20108;-66
2022/09/01 08:21:22;;;;;;;2.67;1.70;;;20.40;99.90;;;;;;5036797;28;20139;-66
2022/09/01 08:23:52;;;;;;;2.55;1.60;;;20.40;99.90;;;;;;5050670;28;20031;-65
2022/09/01 08:26:22;;;;;;;2.33;1.58;;;20.10;99.90;;;;;;5050892;28;20504;-66
2022/09/01 08:28:48;;;;;;;1.70;1.10;;;20.10;99.90;;;;;;5032813;28;20060;-65
2022/09/01 08:31:18;;;;;;;4.30;1.90;;;20.10;99.90;;;;;;5033112;28;20025;-66
2022/09/01 08:33:46;;;;;;;3.00;1.85;;;20.10;99.90;;;;;;5033004;28;20029;-66
2022/09/01 08:36:14;;;;;;;2.47;1.50;;;20.20;99.90;;;;;;5045287;22;20452;-65
2022/09/01 08:38:41;;;;;;;3.20;1.52;;;20.10;99.90;;;;;;5050389;28;20416;-65
2022/09/01 08:41:39;;;;;;;2.35;1.45;;;20.20;99.90;;;;;;5031407;28;20432;-65
2022/09/01 08:44:47;;;;;;;2.10;1.60;;;20.40;99.90;;;;;;5011912;28;20127;-65
2022/09/01 08:47:18;;;;;;;2.00;1.48;;;20.30;99.90;;;;;;5010654;28;20117;-65
2022/09/01 08:49:46;;;;;;;2.47;1.63;;;20.50;99.90;;;;;;5009777;28;20029;-65
2022/09/01 08:52:33;;;;;;;1.88;1.45;;;20.60;99.90;;;;;;5012831;28;20037;-65
2022/09/01 08:55:55;;;;;;;3.53;1.50;;;20.60;99.90;;;;;;5012899;28;20029;-65
2022/09/01 08:58:21;;;;;;;2.97;1.48;;;20.40;99.90;;;;;;5007931;28;20045;-66
2022/09/01 09:00:56;;;;;;;1.95;1.35;;;20.50;99.90;;;;;;5012772;28;20148;-66
2022/09/01 09:03:48;;;;;;;4.47;1.83;;;20.50;99.90;;;;;;5030330;28;20033;-64
2022/09/01 09:06:32;;;;;;;3.05;2.15;;;20.50;99.90;;;;;;5012700;28;20033;-64
2022/09/01 09:09:07;;;;;;;3.65;1.98;;;20.60;99.90;;;;;;5013929;28;20429;-65
2022/09/01 09:12:01;;;;;;;3.35;1.83;;;20.70;99.90;;;;;;5000299;28;20135;-64
2022/09/01 09:15:01;;;;;;;7.13;2.22;;;20.80;99.90;;;;;;5010165;28;20513;-65
2022/09/01 09:17:39;;;;;;;3.88;1.80;;;20.90;99.90;;;;;;4996841;28;20034;-66
2022/09/01 09:20:06;;;;;;;5.82;2.42;;;21.10;99.90;;;;;;5010587;28;20038;-66
2022/09/01 09:22:32;;;;;;;4.97;2.33;;;21.40;99.90;;;;;;5009949;28;20068;-66
2022/09/01 09:25:13;;;;;;;3.30;1.98;;;21.50;99.90;;;;;;5010398;28;20026;-63
2022/09/01 09:27:44;;;;;;;;;;;21.30;99.90;;;;;;5010738;28;20123;-65
2022/09/01 09:30:14;;;;;;;;;;;21.60;99.90;;;;;;4993611;28;19944;-66
2022/09/01 09:33:03;;;;;;;2.72;2.03;;;22.00;99.90;;;;;;5010481;28;20344;-65
2022/09/01 09:35:37;;;;;;;3.08;1.65;;;22.20;99.90;;;;;;5010180;28;20038;-65
2022/09/01 09:38:22;;;;;;;2.55;1.65;;;22.00;99.90;;;;;;4993002;28;20026;-66
2022/09/01 09:41:13;;;;;;;4.18;1.50;;;22.40;99.90;;;;;;5010384;28;20029;-65
2022/09/01 09:43:57;;;;;;;1.92;1.13;;;22.50;99.90;;;;;;5011706;28;20034;-65
2022/09/01 09:46:41;;;;;;;4.32;1.10;;;22.70;99.90;;;;;;5013999;28;20021;-66
2022/09/01 09:49:42;;;;;;;1.30;1.02;;;22.90;99.90;;;;;;5029767;28;20106;-65
2022/09/01 09:52:08;;;;;;;2.97;1.50;;;23.30;99.90;;;;;;4926342;29;20463;-65
2022/09/01 09:54:38;;;;;;;3.97;1.77;;;23.50;99.90;;;;;;4997894;28;20069;-65
2022/09/01 09:57:14;;;;;;;2.25;1.50;;;23.70;99.90;;;;;;5033859;28;20030;-65
2022/09/01 09:59:48;;;;;;;2.40;1.40;;;23.90;99.90;;;;;;5033532;28;20095;-63
2022/09/01 10:02:33;;;;;;;2.03;1.20;;;24.10;99.30;;;;;;5016227;28;20104;-65
2022/09/01 10:05:21;;;;;;;2.58;1.13;;;24.00;98.90;;;;;;5033522;28;20025;-65
2022/09/01 10:07:47;;;;;;;2.30;1.13;;;23.90;98.70;;;;;;5018416;28;20057;-65
2022/09/01 10:10:39;;;;;;;1.77;1.10;;;23.70;99.40;;;;;;5015838;28;20156;-64
2022/09/01 10:13:11;;;;;;;3.15;1.73;;;23.40;99.50;;;;;;5015917;28;20029;-65
2022/09/01 10:15:39;;;;;;;1.75;1.13;;;23.40;99.20;;;;;;5015705;28;20113;-65
2022/09/01 10:18:13;;;;;;;2.85;1.20;;;23.80;99.10;;;;;;5015852;28;20490;-65
2022/09/01 10:20:47;;;;;;;2.83;1.35;;;23.40;99.00;;;;;;5033376;28;20067;-65
2022/09/01 10:23:13;;;;;;;4.45;1.48;;;23.40;98.80;;;;;;5033349;28;20110;-64
2022/09/01 10:25:41;;;;;;;2.42;0.93;;;23.40;98.80;;;;;;5015491;28;20473;-65
2022/09/01 10:28:22;;;;;;;2.58;1.40;;;23.70;99.10;;;;;;5015617;28;20478;-65
2022/09/01 10:30:51;;;;;;;2.60;1.17;;;23.90;98.20;;;;;;5032996;28;20021;-66
2022/09/01 10:33:20;;;;;;;1.90;1.10;;;24.00;98.40;;;;;;5015516;28;20033;-65
2022/09/01 10:35:50;;;;;;;1.60;0.90;;;23.70;97.30;;;;;;5033092;28;20469;-64
2022/09/01 10:38:23;;;;;;;1.90;1.10;;;23.60;97.60;;;;;;5015709;28;20126;-64
2022/09/01 10:41:06;;;;;;;1.92;1.33;;;23.70;97.80;;;;;;5015802;28;20593;-64
2022/09/01 10:43:39;;;;;;;1.63;0.93;;;23.90;96.90;;;;;;5017361;28;20048;-65
2022/09/01 10:46:20;;;;;;;2.08;0.85;;;24.00;96.90;;;;;;5032682;28;20565;-64
2022/09/01 10:48:49;;;;;;;2.45;1.48;;;24.30;97.20;;;;;;5015533;28;20040;-65
2022/09/01 10:51:15;;;;;;;2.00;1.00;;;24.30;96.80;;;;;;5015420;28;20025;-65
2022/09/01 10:53:50;;;;;;;1.75;1.10;;;24.20;95.90;;;;;;5032631;28;20711;-65
2022/09/01 10:56:45;;;;;;;2.08;1.20;;;23.80;96.60;;;;;;5032657;28;20030;-65
2022/09/01 10:59:27;;;;;;;1.35;0.88;;;24.50;97.00;;;;;;5015857;28;20487;-65
2022/09/01 11:01:53;;;;;;;1.55;0.77;;;24.90;96.00;;;;;;5015430;28;20025;-66
2022/09/01 11:04:31;;;;;;;0.77;0.65;;;25.10;96.00;;;;;;5032732;28;20396;-66
2022/09/01 11:07:05;;;;;;;9.90;1.15;;;25.30;95.40;;;;;;5013453;28;20031;-65
2022/09/01 11:10:06;;;;;;;1.25;0.85;;;25.30;94.70;;;;;;5015143;28;20839;-65
2022/09/01 11:12:38;;;;;;;1.88;0.80;;;25.70;94.40;;;;;;4997881;28;20030;-63
2022/09/01 11:15:14;;;;;;;1.25;0.70;;;25.50;93.90;;;;;;4994916;28;20033;-65
2022/09/01 11:17:52;;;;;;;1.17;0.75;;;25.20;94.00;;;;;;5012663;28;20588;-64
2022/09/01 11:20:30;;;;;;;1.45;0.90;;;25.30;94.10;;;;;;5012455;28;20065;-65
2022/09/01 11:22:56;;;;;;;1.50;0.82;;;25.30;94.50;;;;;;5014137;28;20493;-65
2022/09/01 11:25:39;;;;;;;1.05;0.82;;;25.40;93.80;;;;;;5032089;28;20065;-65
2022/09/01 11:28:15;;;;;;;3.53;1.77;;;24.80;94.20;;;;;;5032192;28;20052;-66
2022/09/01 11:31:07;;;;;;;2.33;0.80;;;25.10;94.60;;;;;;5032042;28;20041;-66
2022/09/01 11:34:02;;;;;;;1.85;1.08;;;25.70;93.90;;;;;;5014332;28;20034;-66
2022/09/01 11:36:59;;;;;;;1.75;0.93;;;26.40;93.00;;;;;;5031814;28;20079;-66
2022/09/01 11:39:36;;;;;;;1.42;0.75;;;26.80;91.90;;;;;;5031871;28;20485;-66
2022/09/01 11:42:18;;;;;;;1.48;1.00;;;27.00;91.60;;;;;;5014404;28;20045;-66
2022/09/01 11:45:25;;;;;;;0.93;0.82;;;26.80;91.80;;;;;;5030431;28;20393;-66
2022/09/01 11:47:56;;;;;;;0.75;0.57;;;26.30;91.30;;;;;;4992573;28;20141;-65
2022/09/01 11:50:35;;;;;;;3.05;0.93;;;26.60;91.70;;;;;;5031468;28;20028;-65
2022/09/01 11:53:06;;;;;;;1.80;1.02;;;26.60;91.70;;;;;;5010597;28;20128;-65
2022/09/01 11:55:38;;;;;;;1.35;0.90;;;26.70;91.00;;;;;;5010673;28;20497;-65
2022/09/01 11:58:08;;;;;;;0.85;0.63;;;26.90;91.20;;;;;;5011889;28;20564;-65
2022/09/01 12:00:39;;;;;;;1.27;0.75;;;26.40;90.50;;;;;;5017084;28;20044;-65
2022/09/01 12:03:28;;;;;;;2.22;0.90;;;26.60;91.10;;;;;;5013662;28;20497;-65
2022/09/01 12:06:02;;;;;;;1.15;0.75;;;27.20;90.60;;;;;;5031413;28;20111;-65
2022/09/01 12:08:35;;;;;;;1.33;1.00;;;26.70;90.60;;;;;;5014060;28;20026;-65
2022/09/01 12:11:07;;;;;;;2.15;1.13;;;26.50;91.00;;;;;;5005705;28;20033;-66
2022/09/01 12:13:34;;;;;;;2.13;1.08;;;26.90;91.40;;;;;;4993917;28;20025;-65
2022/09/01 12:16:05;;;;;;;3.78;0.80;;;26.80;90.50;;;;;;5011484;28;20030;-65
2022/09/01 12:18:45;;;;;;;1.85;1.20;;;27.20;90.10;;;;;;5011134;28;20033;-65
2022/09/01 12:21:26;;;;;;;2.28;0.95;;;26.90;89.60;;;;;;5016359;28;20021;-65
2022/09/01 12:24:08;;;;;;;5.35;1.08;;;26.90;88.00;;;;;;5014665;28;20128;-65
2022/09/01 12:26:34;;;;;;;4.43;1.98;;;26.60;90.00;;;;;;5015433;28;20029;-65
2022/09/01 12:29:00;;;;;;;1.48;0.82;;;26.60;90.40;;;;;;5030939;28;20045;-65
2022/09/01 12:31:26;;;;;;;1.45;0.80;;;26.60;90.30;;;;;;5030916;28;20539;-65
2022/09/01 12:33:55;;;;;;;1.95;1.15;;;26.10;90.10;;;;;;5030767;28;20481;-65
2022/09/01 12:36:34;;;;;;;0.77;0.65;;;26.00;90.80;;;;;;5013067;28;20099;-65
2022/09/01 12:39:23;;;;;;;4.68;0.90;;;26.40;90.40;;;;;;5031071;28;20052;-65
2022/09/01 12:42:07;;;;;;;1.92;0.82;;;27.10;90.10;;;;;;5013375;28;20033;-65
2022/09/01 12:44:36;;;;;;;3.45;0.90;;;27.40;88.40;;;;;;5013290;28;20132;-65
2022/09/01 12:47:06;;;;;;;2.00;0.90;;;27.60;87.20;;;;;;5024630;28;20124;-65
2022/09/01 12:49:34;;;;;;;;;;;27.60;87.10;;;;;;5011590;28;20026;-64
2022/09/01 12:52:26;;;;;;;1.15;0.80;;;27.40;87.20;;;;;;5022093;28;20007;-65
2022/09/01 12:54:57;;;;;;;2.35;0.70;;;27.90;86.10;;;;;;5030394;28;20033;-65
2022/09/01 12:57:33;;;;;;;1.42;0.85;;;27.50;85.80;;;;;;5030478;28;20021;-65
2022/09/01 13:00:20;;;;;;;2.30;0.98;;;26.50;87.40;;;;;;5012646;28;20057;-65
2022/09/01 13:03:14;;;;;;;1.45;0.90;;;26.70;89.20;;;;;;5012448;28;20524;-65
2022/09/01 13:05:46;;;;;;;0.88;0.60;;;27.30;86.20;;;;;;5003995;28;20095;-65
2022/09/01 13:08:21;;;;;;;1.75;1.08;;;27.60;87.20;;;;;;5013468;28;20033;-65
2022/09/01 13:11:14;;;;;;;1.63;0.80;;;27.70;85.80;;;;;;5006448;28;20029;-65
2022/09/01 13:13:40;;;;;;;3.53;1.13;;;28.50;85.70;;;;;;4993052;28;20498;-65
2022/09/01 13:16:12;;;;;;;0.90;0.75;;;29.10;83.00;;;;;;5010451;28;20034;-65
2022/09/01 13:18:40;;;;;;;5.13;2.53;;;29.20;81.30;;;;;;5010426;28;20096;-65
2022/09/01 13:21:06;;;;;;;1.85;0.95;;;29.20;81.40;;;;;;5014285;28;20096;-65